sensor_id;sensor_type;location;lat;lon;timestamp;pressure;altitude;pressure_sealevel;temperature;humidity
44457;BME280;30159;49.316;8.558;2024-01-15T00:02:02;99520.25;;;-1.15;98.52
44457;BME280;30159;49.316;8.558;2024-01-15T00:04:29;99518.66;;;-1.16;98.77
44457;BME280;30159;49.316;8.558;2024-01-15T00:06:55;99524.41;;;-1.19;98.19
44457;BME280;30159;49.316;8.558;2024-01-15T00:09:22;99506.19;;;-1.27;99.31
44457;BME280;30159;49.316;8.558;2024-01-15T00:11:49;99508.06;;;-1.16;99.34
44457;BME280;30159;49.316;8.558;2024-01-15T00:14:16;99495.81;;;-1.29;99.67
44457;BME280;30159;49.316;8.558;2024-01-15T00:16:45;99512.56;;;-1.16;99.42
44457;BME280;30159;49.316;8.558;2024-01-15T00:19:12;99508.41;;;-1.12;99.79
44457;BME280;30159;49.316;8.558;2024-01-15T00:21:39;99507.28;;;-1.16;100.00
44457;BME280;30159;49.316;8.558;2024-01-15T00:24:05;99497.50;;;-1.16;99.37
44457;BME280;30159;49.316;8.558;2024-01-15T00:26:32;99485.28;;;-1.17;98.86
44457;BME280;30159;49.316;8.558;2024-01-15T00:28:59;99492.16;;;-1.28;100.00
44457;BME280;30159;49.316;8.558;2024-01-15T00:31:26;99487.81;;;-1.22;100.00
44457;BME280;30159;49.316;8.558;2024-01-15T00:33:55;99494.00;;;-1.28;100.00
44457;BME280;30159;49.316;8.558;2024-01-15T00:36:21;99483.81;;;-1.43;100.00
44457;BME280;30159;49.316;8.558;2024-01-15T00:38:48;99463.78;;;-1.51;100.00
44457;BME280;30159;49.316;8.558;2024-01-15T00:41:15;99474.19;;;-1.37;100.00
44457;BME280;30159;49.316;8.558;2024-01-15T00:43:41;99458.84;;;-1.47;100.00
44457;BME280;30159;49.316;8.558;2024-01-15T00:46:08;99474.91;;;-1.30;100.00
44457;BME280;30159;49.316;8.558;2024-01-15T00:48:36;99470.63;;;-1.31;100.00
44457;BME280;30159;49.316;8.558;2024-01-15T00:51:04;99452.41;;;-1.51;100.00
44457;BME280;30159;49.316;8.558;2024-01-15T00:53:31;99471.44;;;-1.31;100.00
44457;BME280;30159;49.316;8.558;2024-01-15T00:55:57;99472.81;;;-1.40;100.00
44457;BME280;30159;49.316;8.558;2024-01-15T00:58:24;99468.91;;;-1.37;100.00
44457;BME280;30159;49.316;8.558;2024-01-15T01:00:50;99477.09;;;-1.27;100.00
44457;BME280;30159;49.316;8.558;2024-01-15T01:03:17;99486.81;;;-1.09;100.00
44457;BME280;30159;49.316;8.558;2024-01-15T01:05:45;99475.78;;;-1.06;100.00
44457;BME280;30159;49.316;8.558;2024-01-15T01:08:12;99470.56;;;-1.13;100.00
44457;BME280;30159;49.316;8.558;2024-01-15T01:10:38;99470.56;;;-1.13;100.00
44457;BME280;30159;49.316;8.558;2024-01-15T01:13:05;99476.16;;;-1.02;100.00
44457;BME280;30159;49.316;8.558;2024-01-15T01:15:32;99465.00;;;-0.93;100.00
44457;BME280;30159;49.316;8.558;2024-01-15T01:17:58;99468.00;;;-0.89;100.00
44457;BME280;30159;49.316;8.558;2024-01-15T01:20:25;99465.16;;;-0.76;100.00
44457;BME280;30159;49.316;8.558;2024-01-15T01:22:53;99450.13;;;-1.06;100.00
44457;BME280;30159;49.316;8.558;2024-01-15T01:25:19;99477.78;;;-0.90;100.00
44457;BME280;30159;49.316;8.558;2024-01-15T01:27:46;99476.03;;;-0.96;100.00
44457;BME280;30159;49.316;8.558;2024-01-15T01:30:13;99475.50;;;-0.86;100.00
44457;BME280;30159;49.316;8.558;2024-01-15T01:32:39;99468.09;;;-0.84;100.00
44457;BME280;30159;49.316;8.558;2024-01-15T01:35:06;99478.47;;;-0.94;100.00
44457;BME280;30159;49.316;8.558;2024-01-15T01:37:33;99466.88;;;-0.81;100.00
44457;BME280;30159;49.316;8.558;2024-01-15T01:40:01;99480.53;;;-0.85;100.00
44457;BME280;30159;49.316;8.558;2024-01-15T01:42:28;99464.78;;;-0.79;100.00
44457;BME280;30159;49.316;8.558;2024-01-15T01:44:54;99466.53;;;-0.73;100.00
44457;BME280;30159;49.316;8.558;2024-01-15T01:47:21;99467.91;;;-0.71;100.00
44457;BME280;30159;49.316;8.558;2024-01-15T01:49:48;99469.53;;;-0.70;100.00
44457;BME280;30159;49.316;8.558;2024-01-15T01:52:15;99481.63;;;-0.74;99.92
44457;BME280;30159;49.316;8.558;2024-01-15T01:54:41;99477.50;;;-0.58;99.65
44457;BME280;30159;49.316;8.558;2024-01-15T01:57:10;99466.66;;;-0.68;99.08
44457;BME280;30159;49.316;8.558;2024-01-15T01:59:38;99474.25;;;-0.60;98.87
44457;BME280;30159;49.316;8.558;2024-01-15T02:02:05;99475.28;;;-0.49;98.58
44457;BME280;30159;49.316;8.558;2024-01-15T02:04:32;99458.28;;;-0.53;97.79
44457;BME280;30159;49.316;8.558;2024-01-15T02:07:00;99469.19;;;-0.50;97.50
44457;BME280;30159;49.316;8.558;2024-01-15T02:09:27;99430.03;;;-0.71;97.22
44457;BME280;30159;49.316;8.558;2024-01-15T02:11:54;99459.28;;;-0.43;97.05
44457;BME280;30159;49.316;8.558;2024-01-15T02:14:22;99455.25;;;-0.45;96.62
44457;BME280;30159;49.316;8.558;2024-01-15T02:16:49;99455.84;;;-0.43;97.21
44457;BME280;30159;49.316;8.558;2024-01-15T02:19:15;99395.50;;;-0.76;96.89
44457;BME280;30159;49.316;8.558;2024-01-15T02:21:43;99448.25;;;-0.51;96.82
44457;BME280;30159;49.316;8.558;2024-01-15T02:24:11;99433.75;;;-0.72;97.45
44457;BME280;30159;49.316;8.558;2024-01-15T02:26:37;99445.22;;;-0.78;98.10
44457;BME280;30159;49.316;8.558;2024-01-15T02:29:06;99445.34;;;-0.85;99.01
44457;BME280;30159;49.316;8.558;2024-01-15T02:31:34;99380.38;;;-1.23;99.73
44457;BME280;30159;49.316;8.558;2024-01-15T02:34:01;99417.97;;;-0.79;100.00
44457;BME280;30159;49.316;8.558;2024-01-15T02:36:28;99429.81;;;-0.70;100.00
44457;BME280;30159;49.316;8.558;2024-01-15T02:38:54;99440.63;;;-0.59;99.84
44457;BME280;30159;49.316;8.558;2024-01-15T02:41:22;99439.38;;;-0.57;99.13
44457;BME280;30159;49.316;8.558;2024-01-15T02:43:49;99442.13;;;-0.64;99.20
44457;BME280;30159;49.316;8.558;2024-01-15T02:46:15;99432.47;;;-0.70;99.88
44457;BME280;30159;49.316;8.558;2024-01-15T02:48:42;99440.28;;;-0.75;100.00
44457;BME280;30159;49.316;8.558;2024-01-15T02:51:09;99432.47;;;-0.70;100.00
44457;BME280;30159;49.316;8.558;2024-01-15T02:53:35;99424.75;;;-0.83;100.00
44457;BME280;30159;49.316;8.558;2024-01-15T02:56:02;99422.56;;;-0.86;100.00
44457;BME280;30159;49.316;8.558;2024-01-15T02:58:30;99420.69;;;-0.97;100.00
44457;BME280;30159;49.316;8.558;2024-01-15T03:00:57;99421.13;;;-1.00;100.00
44457;BME280;30159;49.316;8.558;2024-01-15T03:03:23;99418.63;;;-1.07;100.00
44457;BME280;30159;49.316;8.558;2024-01-15T03:05:50;99249.50;;;-2.09;100.00
44457;BME280;30159;49.316;8.558;2024-01-15T03:08:17;99417.00;;;-0.96;100.00
44457;BME280;30159;49.316;8.558;2024-01-15T03:10:43;99405.72;;;-1.03;100.00
44457;BME280;30159;49.316;8.558;2024-01-15T03:13:10;99403.09;;;-0.92;100.00
44457;BME280;30159;49.316;8.558;2024-01-15T03:15:39;99396.09;;;-0.86;100.00
44457;BME280;30159;49.316;8.558;2024-01-15T03:18:05;99386.63;;;-0.82;100.00
44457;BME280;30159;49.316;8.558;2024-01-15T03:20:32;99391.59;;;-0.86;100.00
44457;BME280;30159;49.316;8.558;2024-01-15T03:22:59;99403.56;;;-0.95;100.00
44457;BME280;30159;49.316;8.558;2024-01-15T03:25:25;99407.31;;;-1.14;100.00
44457;BME280;30159;49.316;8.558;2024-01-15T03:27:52;99450.41;;;-0.95;100.00
44457;BME280;30159;49.316;8.558;2024-01-15T03:30:18;99422.78;;;-0.76;100.00
44457;BME280;30159;49.316;8.558;2024-01-15T03:32:46;99432.22;;;-0.80;100.00
44457;BME280;30159;49.316;8.558;2024-01-15T03:35:15;99422.91;;;-0.71;100.00
44457;BME280;30159;49.316;8.558;2024-01-15T03:37:41;99423.47;;;-0.69;100.00
44457;BME280;30159;49.316;8.558;2024-01-15T03:40:09;99422.47;;;-0.56;100.00
44457;BME280;30159;49.316;8.558;2024-01-15T03:42:36;99419.56;;;-0.54;100.00
44457;BME280;30159;49.316;8.558;2024-01-15T03:45:03;99363.50;;;-0.87;100.00
44457;BME280;30159;49.316;8.558;2024-01-15T03:47:30;99414.97;;;-0.71;100.00
44457;BME280;30159;49.316;8.558;2024-01-15T03:49:58;99408.19;;;-0.67;100.00
44457;BME280;30159;49.316;8.558;2024-01-15T03:52:25;99407.81;;;-0.82;100.00
44457;BME280;30159;49.316;8.558;2024-01-15T03:54:51;99412.41;;;-0.66;100.00
44457;BME280;30159;49.316;8.558;2024-01-15T03:57:18;99423.25;;;-0.55;100.00
44457;BME280;30159;49.316;8.558;2024-01-15T03:59:44;99418.75;;;-0.67;100.00
44457;BME280;30159;49.316;8.558;2024-01-15T04:02:12;99398.28;;;-0.59;100.00
44457;BME280;30159;49.316;8.558;2024-01-15T04:04:40;99412.78;;;-0.62;100.00
44457;BME280;30159;49.316;8.558;2024-01-15T04:07:09;99372.72;;;-0.89;100.00
44457;BME280;30159;49.316;8.558;2024-01-15T04:09:35;99388.94;;;-0.62;100.00
44457;BME280;30159;49.316;8.558;2024-01-15T04:12:02;99396.53;;;-0.77;100.00
44457;BME280;30159;49.316;8.558;2024-01-15T04:14:29;99387.91;;;-0.73;100.00
44457;BME280;30159;49.316;8.558;2024-01-15T04:16:55;99380.22;;;-0.62;100.00
44457;BME280;30159;49.316;8.558;2024-01-15T04:19:22;99375.25;;;-0.71;100.00
44457;BME280;30159;49.316;8.558;2024-01-15T04:21:49;99374.66;;;-0.73;100.00
44457;BME280;30159;49.316;8.558;2024-01-15T04:24:17;99390.34;;;-0.59;100.00
44457;BME280;30159;49.316;8.558;2024-01-15T04:26:44;99387.56;;;-0.65;100.00
44457;BME280;30159;49.316;8.558;2024-01-15T04:29:11;99380.53;;;-0.59;100.00
44457;BME280;30159;49.316;8.558;2024-01-15T04:31:38;99386.09;;;-0.60;100.00
44457;BME280;30159;49.316;8.558;2024-01-15T04:34:04;99319.78;;;-1.01;100.00
44457;BME280;30159;49.316;8.558;2024-01-15T04:36:31;99367.78;;;-0.62;100.00
44457;BME280;30159;49.316;8.558;2024-01-15T04:38:57;99367.53;;;-0.60;100.00
44457;BME280;30159;49.316;8.558;2024-01-15T04:41:25;99354.53;;;-0.62;100.00
44457;BME280;30159;49.316;8.558;2024-01-15T04:43:52;99365.91;;;-0.61;100.00
44457;BME280;30159;49.316;8.558;2024-01-15T04:46:18;99374.53;;;-0.54;100.00
44457;BME280;30159;49.316;8.558;2024-01-15T04:48:45;99374.44;;;-0.59;100.00
44457;BME280;30159;49.316;8.558;2024-01-15T04:51:12;99373.06;;;-0.50;100.00
44457;BME280;30159;49.316;8.558;2024-01-15T04:53:38;99369.13;;;-0.36;100.00
44457;BME280;30159;49.316;8.558;2024-01-15T04:56:05;99370.97;;;-0.48;100.00
44457;BME280;30159;49.316;8.558;2024-01-15T04:58:33;99371.09;;;-0.55;100.00
44457;BME280;30159;49.316;8.558;2024-01-15T05:01:00;99379.84;;;-0.54;100.00
44457;BME280;30159;49.316;8.558;2024-01-15T05:03:26;99398.03;;;-0.46;100.00
44457;BME280;30159;49.316;8.558;2024-01-15T05:05:53;99370.97;;;-0.48;100.00
44457;BME280;30159;49.316;8.558;2024-01-15T05:08:19;99368.56;;;-0.50;100.00
44457;BME280;30159;49.316;8.558;2024-01-15T05:10:47;99358.06;;;-0.45;100.00
44457;BME280;30159;49.316;8.558;2024-01-15T05:13:14;99361.06;;;-0.41;100.00
44457;BME280;30159;49.316;8.558;2024-01-15T05:15:42;99363.78;;;-0.24;100.00
44457;BME280;30159;49.316;8.558;2024-01-15T05:18:08;99329.75;;;-0.44;100.00
44457;BME280;30159;49.316;8.558;2024-01-15T05:20:35;99335.28;;;-0.46;100.00
44457;BME280;30159;49.316;8.558;2024-01-15T05:23:02;99331.94;;;-0.53;100.00
44457;BME280;30159;49.316;8.558;2024-01-15T05:25:28;99344.25;;;-0.58;100.00
44457;BME280;30159;49.316;8.558;2024-01-15T05:27:55;99321.47;;;-0.59;100.00
44457;BME280;30159;49.316;8.558;2024-01-15T05:30:22;99328.16;;;-0.69;100.00
44457;BME280;30159;49.316;8.558;2024-01-15T05:32:50;99337.25;;;-0.65;100.00
44457;BME280;30159;49.316;8.558;2024-01-15T05:35:16;99333.44;;;-0.57;100.00
44457;BME280;30159;49.316;8.558;2024-01-15T05:37:44;99311.59;;;-0.76;100.00
44457;BME280;30159;49.316;8.558;2024-01-15T05:40:11;99339.53;;;-0.56;100.00
44457;BME280;30159;49.316;8.558;2024-01-15T05:42:38;99335.41;;;-0.64;100.00
44457;BME280;30159;49.316;8.558;2024-01-15T05:45:05;99324.22;;;-0.54;100.00
44457;BME280;30159;49.316;8.558;2024-01-15T05:47:32;99322.50;;;-0.49;100.00
44457;BME280;30159;49.316;8.558;2024-01-15T05:50:00;99238.09;;;-0.97;100.00
44457;BME280;30159;49.316;8.558;2024-01-15T05:52:27;99303.16;;;-0.49;100.00
44457;BME280;30159;49.316;8.558;2024-01-15T05:54:53;99313.28;;;-0.46;100.00
44457;BME280;30159;49.316;8.558;2024-01-15T05:57:20;99319.38;;;-0.46;100.00
44457;BME280;30159;49.316;8.558;2024-01-15T05:59:46;99315.00;;;-0.52;100.00
44457;BME280;30159;49.316;8.558;2024-01-15T06:02:13;99309.16;;;-0.54;100.00
44457;BME280;30159;49.316;8.558;2024-01-15T06:04:40;99307.66;;;-0.61;100.00
44457;BME280;30159;49.316;8.558;2024-01-15T06:07:07;99316.41;;;-0.61;100.00
44457;BME280;30159;49.316;8.558;2024-01-15T06:09:34;99313.38;;;-0.41;100.00
44457;BME280;30159;49.316;8.558;2024-01-15T06:12:01;99302.56;;;-0.39;100.00
44457;BME280;30159;49.316;8.558;2024-01-15T06:14:27;99313.72;;;-0.37;100.00
44457;BME280;30159;49.316;8.558;2024-01-15T06:16:54;99310.03;;;-0.36;100.00
44457;BME280;30159;49.316;8.558;2024-01-15T06:19:20;99302.28;;;-0.26;100.00
44457;BME280;30159;49.316;8.558;2024-01-15T06:21:47;99302.88;;;-0.36;100.00
44457;BME280;30159;49.316;8.558;2024-01-15T06:24:15;99298.38;;;-0.35;100.00
44457;BME280;30159;49.316;8.558;2024-01-15T06:26:43;99306.81;;;-0.38;100.00
44457;BME280;30159;49.316;8.558;2024-01-15T06:29:09;99312.72;;;-0.48;100.00
44457;BME280;30159;49.316;8.558;2024-01-15T06:31:36;99313.88;;;-0.44;100.00
44457;BME280;30159;49.316;8.558;2024-01-15T06:34:03;99313.72;;;-0.37;100.00
44457;BME280;30159;49.316;8.558;2024-01-15T06:36:29;99320.50;;;-0.30;100.00
44457;BME280;30159;49.316;8.558;2024-01-15T06:38:56;99315.78;;;-0.28;100.00
44457;BME280;30159;49.316;8.558;2024-01-15T06:41:24;99322.50;;;-0.08;100.00
44457;BME280;30159;49.316;8.558;2024-01-15T06:43:53;99317.38;;;0.02;100.00
44457;BME280;30159;49.316;8.558;2024-01-15T06:46:21;99318.88;;;0.10;100.00
44457;BME280;30159;49.316;8.558;2024-01-15T06:48:48;99331.03;;;0.23;100.00
44457;BME280;30159;49.316;8.558;2024-01-15T06:51:15;99333.63;;;0.34;100.00
44457;BME280;30159;49.316;8.558;2024-01-15T06:53:42;99289.81;;;0.15;100.00
44457;BME280;30159;49.316;8.558;2024-01-15T06:56:09;99294.75;;;0.11;100.00
44457;BME280;30159;49.316;8.558;2024-01-15T06:58:37;99317.97;;;0.33;100.00
44457;BME280;30159;49.316;8.558;2024-01-15T07:01:03;99320.22;;;0.41;100.00
44457;BME280;30159;49.316;8.558;2024-01-15T07:03:31;99235.91;;;-0.19;100.00
44457;BME280;30159;49.316;8.558;2024-01-15T07:05:57;99314.19;;;0.29;100.00
44457;BME280;30159;49.316;8.558;2024-01-15T07:08:24;99314.75;;;0.31;100.00
44457;BME280;30159;49.316;8.558;2024-01-15T07:10:51;99326.97;;;0.49;100.00
44457;BME280;30159;49.316;8.558;2024-01-15T07:13:17;99333.63;;;0.51;100.00
44457;BME280;30159;49.316;8.558;2024-01-15T07:15:45;99324.72;;;0.40;100.00
44457;BME280;30159;49.316;8.558;2024-01-15T07:18:12;99322.06;;;0.40;100.00
44457;BME280;30159;49.316;8.558;2024-01-15T07:20:38;99327.38;;;0.40;100.00
44457;BME280;30159;49.316;8.558;2024-01-15T07:23:05;99321.34;;;0.28;100.00
44457;BME280;30159;49.316;8.558;2024-01-15T07:25:32;99323.66;;;0.41;100.00
44457;BME280;30159;49.316;8.558;2024-01-15T07:27:59;99334.97;;;0.37;100.00
44457;BME280;30159;49.316;8.558;2024-01-15T07:30:25;99333.03;;;0.32;100.00
44457;BME280;30159;49.316;8.558;2024-01-15T07:32:53;99314.75;;;0.31;100.00
44457;BME280;30159;49.316;8.558;2024-01-15T07:35:20;99324.69;;;0.24;100.00
44457;BME280;30159;49.316;8.558;2024-01-15T07:37:47;99330.44;;;0.20;100.00
44457;BME280;30159;49.316;8.558;2024-01-15T07:40:14;99331.31;;;0.38;100.00
44457;BME280;30159;49.316;8.558;2024-01-15T07:42:41;99327.44;;;0.29;100.00
44457;BME280;30159;49.316;8.558;2024-01-15T07:45:08;99325.00;;;0.27;100.00
44457;BME280;30159;49.316;8.558;2024-01-15T07:47:35;99332.22;;;0.15;100.00
44457;BME280;30159;49.316;8.558;2024-01-15T07:50:03;99327.34;;;0.24;100.00
44457;BME280;30159;49.316;8.558;2024-01-15T07:52:31;99328.22;;;0.29;100.00
44457;BME280;30159;49.316;8.558;2024-01-15T07:54:57;99320.44;;;0.39;100.00
44457;BME280;30159;49.316;8.558;2024-01-15T07:57:25;99324.56;;;0.47;100.00
44457;BME280;30159;49.316;8.558;2024-01-15T07:59:52;99318.41;;;0.58;100.00
44457;BME280;30159;49.316;8.558;2024-01-15T08:02:19;99286.88;;;0.45;100.00
44457;BME280;30159;49.316;8.558;2024-01-15T08:04:45;99321.63;;;0.77;100.00
44457;BME280;30159;49.316;8.558;2024-01-15T08:07:13;99313.72;;;0.66;100.00
44457;BME280;30159;49.316;8.558;2024-01-15T08:09:41;99313.88;;;0.76;100.00
44457;BME280;30159;49.316;8.558;2024-01-15T08:12:08;99304.47;;;0.85;100.00
44457;BME280;30159;49.316;8.558;2024-01-15T08:14:35;99277.69;;;0.70;100.00
44457;BME280;30159;49.316;8.558;2024-01-15T08:17:02;99233.75;;;0.40;100.00
44457;BME280;30159;49.316;8.558;2024-01-15T08:19:29;99295.97;;;0.66;100.00
44457;BME280;30159;49.316;8.558;2024-01-15T08:21:56;99284.38;;;0.55;100.00
44457;BME280;30159;49.316;8.558;2024-01-15T08:24:24;99291.31;;;0.56;100.00
44457;BME280;30159;49.316;8.558;2024-01-15T08:26:51;99294.03;;;0.61;100.00
44457;BME280;30159;49.316;8.558;2024-01-15T08:29:18;99257.59;;;0.57;100.00
44457;BME280;30159;49.316;8.558;2024-01-15T08:31:46;99287.50;;;0.86;100.00
44457;BME280;30159;49.316;8.558;2024-01-15T08:34:12;99286.63;;;0.80;100.00
44457;BME280;30159;49.316;8.558;2024-01-15T08:36:39;99285.31;;;0.83;100.00
44457;BME280;30159;49.316;8.558;2024-01-15T08:39:06;99279.00;;;0.84;100.00
44457;BME280;30159;49.316;8.558;2024-01-15T08:41:35;99276.47;;;0.94;100.00
44457;BME280;30159;49.316;8.558;2024-01-15T08:44:02;99282.41;;;1.01;100.00
44457;BME280;30159;49.316;8.558;2024-01-15T08:46:29;99283.06;;;0.92;100.00
44457;BME280;30159;49.316;8.558;2024-01-15T08:48:56;99279.38;;;0.76;100.00
44457;BME280;30159;49.316;8.558;2024-01-15T08:51:22;99283.25;;;0.85;100.00
44457;BME280;30159;49.316;8.558;2024-01-15T08:53:49;99263.47;;;0.76;100.00
44457;BME280;30159;49.316;8.558;2024-01-15T08:56:16;99292.41;;;0.94;100.00
44457;BME280;30159;49.316;8.558;2024-01-15T08:58:44;99288.34;;;1.09;100.00
44457;BME280;30159;49.316;8.558;2024-01-15T09:01:11;99254.91;;;0.91;100.00
44457;BME280;30159;49.316;8.558;2024-01-15T09:03:38;99295.34;;;1.15;100.00
44457;BME280;30159;49.316;8.558;2024-01-15T09:06:07;99291.06;;;1.14;100.00
44457;BME280;30159;49.316;8.558;2024-01-15T09:08:34;99294.78;;;1.13;100.00
44457;BME280;30159;49.316;8.558;2024-01-15T09:11:01;99117.25;;;0.16;100.00
44457;BME280;30159;49.316;8.558;2024-01-15T09:13:29;99276.13;;;0.91;100.00
44457;BME280;30159;49.316;8.558;2024-01-15T09:15:58;99288.28;;;1.03;100.00
44457;BME280;30159;49.316;8.558;2024-01-15T09:18:24;99288.78;;;1.00;100.00
44457;BME280;30159;49.316;8.558;2024-01-15T09:20:51;99269.72;;;0.87;100.00
44457;BME280;30159;49.316;8.558;2024-01-15T09:23:17;99298.34;;;1.01;100.00
44457;BME280;30159;49.316;8.558;2024-01-15T09:25:44;99286.59;;;0.97;100.00
44457;BME280;30159;49.316;8.558;2024-01-15T09:28:11;99292.47;;;0.99;100.00
44457;BME280;30159;49.316;8.558;2024-01-15T09:30:37;99281.78;;;0.94;100.00
44457;BME280;30159;49.316;8.558;2024-01-15T09:33:05;99291.34;;;1.12;100.00
44457;BME280;30159;49.316;8.558;2024-01-15T09:35:32;99283.66;;;1.16;100.00
44457;BME280;30159;49.316;8.558;2024-01-15T09:37:59;99286.94;;;1.23;100.00
44457;BME280;30159;49.316;8.558;2024-01-15T09:40:30;99287.00;;;1.28;100.00
44457;BME280;30159;49.316;8.558;2024-01-15T09:42:57;99285.75;;;1.31;100.00
44457;BME280;30159;49.316;8.558;2024-01-15T09:45:25;99285.53;;;1.37;100.00
44457;BME280;30159;49.316;8.558;2024-01-15T09:47:52;99287.28;;;1.26;100.00
44457;BME280;30159;49.316;8.558;2024-01-15T09:50:22;99271.81;;;1.23;100.00
44457;BME280;30159;49.316;8.558;2024-01-15T09:52:50;99270.38;;;1.16;100.00
44457;BME280;30159;49.316;8.558;2024-01-15T09:55:17;99263.31;;;1.21;100.00
44457;BME280;30159;49.316;8.558;2024-01-15T09:57:44;99270.38;;;1.16;100.00
44457;BME280;30159;49.316;8.558;2024-01-15T10:00:12;99272.88;;;1.44;100.00
44457;BME280;30159;49.316;8.558;2024-01-15T10:02:39;99266.69;;;1.61;100.00
44457;BME280;30159;49.316;8.558;2024-01-15T10:05:06;99263.06;;;1.45;100.00
44457;BME280;30159;49.316;8.558;2024-01-15T10:07:36;99260.59;;;1.38;100.00
44457;BME280;30159;49.316;8.558;2024-01-15T10:10:04;99259.84;;;1.43;100.00
44457;BME280;30159;49.316;8.558;2024-01-15T10:12:31;99244.34;;;1.13;100.00
44457;BME280;30159;49.316;8.558;2024-01-15T10:14:58;99248.91;;;1.17;100.00
44457;BME280;30159;49.316;8.558;2024-01-15T10:17:25;99246.63;;;1.26;100.00
44457;BME280;30159;49.316;8.558;2024-01-15T10:19:52;99243.91;;;1.21;100.00
44457;BME280;30159;49.316;8.558;2024-01-15T10:22:19;99249.72;;;1.18;100.00
44457;BME280;30159;49.316;8.558;2024-01-15T10:24:47;99244.72;;;1.21;100.00
44457;BME280;30159;49.316;8.558;2024-01-15T10:27:13;99231.00;;;1.08;100.00
44457;BME280;30159;49.316;8.558;2024-01-15T10:29:41;99241.09;;;0.89;100.00
44457;BME280;30159;49.316;8.558;2024-01-15T10:32:08;99234.41;;;0.86;100.00
44457;BME280;30159;49.316;8.558;2024-01-15T10:34:37;99233.53;;;0.80;100.00
44457;BME280;30159;49.316;8.558;2024-01-15T10:37:07;99091.63;;;0.05;100.00
44457;BME280;30159;49.316;8.558;2024-01-15T10:39:34;99220.28;;;1.02;100.00
44457;BME280;30159;49.316;8.558;2024-01-15T10:42:03;99229.44;;;1.12;100.00
44457;BME280;30159;49.316;8.558;2024-01-15T10:44:29;99216.88;;;1.24;100.00
44457;BME280;30159;49.316;8.558;2024-01-15T10:46:56;99199.56;;;1.21;100.00
44457;BME280;30159;49.316;8.558;2024-01-15T10:49:23;99221.06;;;1.20;100.00
44457;BME280;30159;49.316;8.558;2024-01-15T10:51:52;99223.34;;;1.33;100.00
44457;BME280;30159;49.316;8.558;2024-01-15T10:54:19;99226.44;;;1.47;100.00
44457;BME280;30159;49.316;8.558;2024-01-15T10:56:49;99218.94;;;1.44;100.00
44457;BME280;30159;49.316;8.558;2024-01-15T10:59:19;99221.22;;;1.57;100.00
44457;BME280;30159;49.316;8.558;2024-01-15T11:01:46;99215.22;;;1.67;100.00
44457;BME280;30159;49.316;8.558;2024-01-15T11:04:14;99211.09;;;1.81;100.00
44457;BME280;30159;49.316;8.558;2024-01-15T11:06:43;99216.47;;;1.86;100.00
44457;BME280;30159;49.316;8.558;2024-01-15T11:09:11;99221.78;;;1.86;100.00
44457;BME280;30159;49.316;8.558;2024-01-15T11:11:40;99215.50;;;1.98;100.00
44457;BME280;30159;49.316;8.558;2024-01-15T11:14:07;99219.22;;;1.97;100.00
44457;BME280;30159;49.316;8.558;2024-01-15T11:16:55;99222.13;;;2.22;100.00
44457;BME280;30159;49.316;8.558;2024-01-15T11:19:25;99219.91;;;2.14;100.00
44457;BME280;30159;49.316;8.558;2024-01-15T11:21:51;99210.09;;;2.15;100.00
44457;BME280;30159;49.316;8.558;2024-01-15T11:24:36;99206.72;;;2.24;100.00
44457;BME280;30159;49.316;8.558;2024-01-15T11:27:04;99215.06;;;2.06;100.00
44457;BME280;30159;49.316;8.558;2024-01-15T11:29:33;99205.78;;;1.81;100.00
44457;BME280;30159;49.316;8.558;2024-01-15T11:32:03;99197.84;;;1.86;100.00
44457;BME280;30159;49.316;8.558;2024-01-15T11:34:50;99192.00;;;1.84;100.00
44457;BME280;30159;49.316;8.558;2024-01-15T11:37:17;99199.88;;;2.01;100.00
44457;BME280;30159;49.316;8.558;2024-01-15T11:39:44;99204.78;;;2.15;100.00
44457;BME280;30159;49.316;8.558;2024-01-15T11:42:12;99209.03;;;2.16;100.00
44457;BME280;30159;49.316;8.558;2024-01-15T11:44:39;99167.84;;;1.91;100.00
44457;BME280;30159;49.316;8.558;2024-01-15T11:47:08;99215.47;;;1.93;100.00
44457;BME280;30159;49.316;8.558;2024-01-15T11:49:59;99220.34;;;2.01;100.00
44457;BME280;30159;49.316;8.558;2024-01-15T11:52:31;99210.34;;;1.86;100.00
44457;BME280;30159;49.316;8.558;2024-01-15T11:55:01;99195.84;;;1.72;100.00
44457;BME280;30159;49.316;8.558;2024-01-15T11:57:35;99209.38;;;1.70;100.00
44457;BME280;30159;49.316;8.558;2024-01-15T12:00:05;99210.50;;;1.74;100.00
44457;BME280;30159;49.316;8.558;2024-01-15T12:02:34;99215.97;;;1.89;100.00
44457;BME280;30159;49.316;8.558;2024-01-15T12:05:00;99231.78;;;2.01;100.00
44457;BME280;30159;49.316;8.558;2024-01-15T12:07:28;99217.84;;;1.89;100.00
44457;BME280;30159;49.316;8.558;2024-01-15T12:09:54;99207.41;;;1.82;100.00
44457;BME280;30159;49.316;8.558;2024-01-15T12:12:27;99224.44;;;1.86;100.00
44457;BME280;30159;49.316;8.558;2024-01-15T12:14:55;99229.75;;;1.86;100.00
44457;BME280;30159;49.316;8.558;2024-01-15T12:17:22;99198.75;;;1.70;100.00
44457;BME280;30159;49.316;8.558;2024-01-15T12:19:50;99217.47;;;1.80;100.00
44457;BME280;30159;49.316;8.558;2024-01-15T12:22:16;99211.41;;;1.85;100.00
44457;BME280;30159;49.316;8.558;2024-01-15T12:24:43;99217.53;;;1.85;100.00
44457;BME280;30159;49.316;8.558;2024-01-15T12:27:10;99199.88;;;1.74;100.00
44457;BME280;30159;49.316;8.558;2024-01-15T12:29:37;99219.81;;;1.77;100.00
44457;BME280;30159;49.316;8.558;2024-01-15T12:32:05;99219.59;;;1.78;100.00
44457;BME280;30159;49.316;8.558;2024-01-15T12:34:32;99210.06;;;1.82;100.00
44457;BME280;30159;49.316;8.558;2024-01-15T12:37:00;99225.50;;;1.85;100.00
44457;BME280;30159;49.316;8.558;2024-01-15T12:39:27;99223.59;;;1.81;100.00
44457;BME280;30159;49.316;8.558;2024-01-15T12:41:53;99229.50;;;1.88;100.00
44457;BME280;30159;49.316;8.558;2024-01-15T12:44:20;99223.44;;;1.93;100.00
44457;BME280;30159;49.316;8.558;2024-01-15T12:46:47;99226.34;;;1.91;100.00
44457;BME280;30159;49.316;8.558;2024-01-15T12:49:14;99212.00;;;1.92;100.00
44457;BME280;30159;49.316;8.558;2024-01-15T12:51:41;99183.22;;;1.84;100.00
44457;BME280;30159;49.316;8.558;2024-01-15T12:54:09;99217.34;;;2.24;100.00
44457;BME280;30159;49.316;8.558;2024-01-15T12:56:35;99221.19;;;2.39;100.00